Blue Yonder — WCW3625 — position and weather

sailwx.info

Track history (hours):
 
Tides and Currents Weather Stations Pressure Air Temp Water Temp Dewpoint Dewpoint Depression Visibility Wind Speed Wind Dir Waves Ship Positions

Blue Yonder

Owner: BRIDGES, DAVID M, VIRGINIA BEACH, VA. More information available from US FCC via Universal Licensing System and Coast Guard Vessel Documentation Center.

Last reported at 2014-Oct-30 16:21 UTC. Time now 2014-Oct-31 17:16 UTC.
Position N 34°38' W 076°46'.

Length 12 m.

Type: Sailing vessel. MMSI: 367091720.

Date/timePositionNaut miles runAvg speedWind from/ knotsBaromVisibWave heightAir tempDewpointWater temp
2014-Oct-30 16:21N 34°38' W 076°46'5 6.3
2014-Oct-30 15:33N 34°40' W 076°40'3 2.9
2014-Oct-30 14:33N 34°43' W 076°39'0 0.4
2014-Oct-30 13:31N 34°43' W 076°39'0 0.0
2014-Oct-30 12:31N 34°43' W 076°39'0 0.0
2014-Oct-30 11:31N 34°43' W 076°39'0 0.0
2014-Oct-30 10:31N 34°43' W 076°39'0 0.0
2014-Oct-30 09:31N 34°43' W 076°39'0 0.0
2014-Oct-30 08:31N 34°43' W 076°39'0 0.0
2014-Oct-30 07:31N 34°43' W 076°39'0 0.0
2014-Oct-30 06:31N 34°43' W 076°39'0 0.0
2014-Oct-30 05:31N 34°43' W 076°39'0 0.0
2014-Oct-30 04:31N 34°43' W 076°39'0 0.0
2014-Oct-30 03:31N 34°43' W 076°39'0 0.0
2014-Oct-30 02:31N 34°43' W 076°39'0 0.0
2014-Oct-30 01:31N 34°43' W 076°39'0 0.0
2014-Oct-30 00:31N 34°43' W 076°39'0 0.0
2014-Oct-29 23:31N 34°43' W 076°39'0 0.0
2014-Oct-29 22:31N 34°43' W 076°39'0 0.0
2014-Oct-29 21:31N 34°43' W 076°39'0 0.0
2014-Oct-29 20:28N 34°43' W 076°39'0 0.0
2014-Oct-29 19:28N 34°43' W 076°39'0 0.0
2014-Oct-29 18:31N 34°43' W 076°39'0 0.0
2014-Oct-29 17:31N 34°43' W 076°39'0 0.0
2014-Oct-29 16:31N 34°43' W 076°39'1 0.8
2014-Oct-29 15:31N 34°43' W 076°38'4 3.8
2014-Oct-29 14:33N 34°46' W 076°40'16 0.6
2014-Oct-28 09:07N 35°02' W 076°41'  
Track history (hours):
 
Tides and Currents Weather Stations Pressure Air Temp Water Temp Dewpoint Dewpoint Depression Visibility Wind Speed Wind Dir Waves Ship Positions

Blue Yonder

Owner: BRIDGES, DAVID M, VIRGINIA BEACH, VA. More information available from US FCC via Universal Licensing System and Coast Guard Vessel Documentation Center.

Last reported at 2014-Oct-30 16:21 UTC. Time now 2014-Oct-31 17:16 UTC.
Position N 34°38' W 076°46'.

Length 12 m.

Type: Sailing vessel. MMSI: 367091720.

Date/timePositionNaut miles runAvg speedWind from/ knotsBaromVisibWave heightAir tempDewpointWater temp
2014-Oct-30 16:21N 34°38' W 076°46'5 6.3
2014-Oct-30 15:33N 34°40' W 076°40'3 2.9
2014-Oct-30 14:33N 34°43' W 076°39'0 0.4
2014-Oct-30 13:31N 34°43' W 076°39'0 0.0
2014-Oct-30 12:31N 34°43' W 076°39'0 0.0
2014-Oct-30 11:31N 34°43' W 076°39'0 0.0
2014-Oct-30 10:31N 34°43' W 076°39'0 0.0
2014-Oct-30 09:31N 34°43' W 076°39'0 0.0
2014-Oct-30 08:31N 34°43' W 076°39'0 0.0
2014-Oct-30 07:31N 34°43' W 076°39'0 0.0
2014-Oct-30 06:31N 34°43' W 076°39'0 0.0
2014-Oct-30 05:31N 34°43' W 076°39'0 0.0
2014-Oct-30 04:31N 34°43' W 076°39'0 0.0
2014-Oct-30 03:31N 34°43' W 076°39'0 0.0
2014-Oct-30 02:31N 34°43' W 076°39'0 0.0
2014-Oct-30 01:31N 34°43' W 076°39'0 0.0
2014-Oct-30 00:31N 34°43' W 076°39'0 0.0
2014-Oct-29 23:31N 34°43' W 076°39'0 0.0
2014-Oct-29 22:31N 34°43' W 076°39'0 0.0
2014-Oct-29 21:31N 34°43' W 076°39'0 0.0
2014-Oct-29 20:28N 34°43' W 076°39'0 0.0
2014-Oct-29 19:28N 34°43' W 076°39'0 0.0
2014-Oct-29 18:31N 34°43' W 076°39'0 0.0
2014-Oct-29 17:31N 34°43' W 076°39'0 0.0
2014-Oct-29 16:31N 34°43' W 076°39'1 0.8
2014-Oct-29 15:31N 34°43' W 076°38'4 3.8
2014-Oct-29 14:33N 34°46' W 076°40'16 0.6
2014-Oct-28 09:07N 35°02' W 076°41'  

Dump ship's entire track history